createdAt,value
2019-04-21T00:00:25.820Z,51.85
2019-04-21T00:01:08.672Z,51.65
2019-04-21T00:01:48.687Z,51.56
2019-04-21T00:02:32.333Z,51.46
2019-04-21T00:03:15.077Z,52.04
2019-04-21T00:03:53.614Z,52.52
2019-04-21T00:04:42.577Z,52.14
2019-04-21T00:05:29.666Z,52.42
2019-04-21T00:06:08.654Z,52.11
2019-04-21T00:06:47.864Z,52.4
2019-04-21T00:07:30.929Z,52.2
2019-04-21T00:08:17.815Z,52.23
2019-04-21T00:08:48.208Z,52.78
2019-04-21T00:09:32.434Z,53.16
2019-04-21T00:10:11.603Z,52.69
2019-04-21T00:10:56.181Z,53.55
2019-04-21T00:11:34.115Z,52.97
2019-04-21T00:12:13.649Z,52.87
2019-04-21T00:12:51.454Z,53.16
2019-04-21T00:13:26.435Z,53.16
2019-04-21T00:14:05.518Z,52.87
2019-04-21T00:14:45.938Z,53.45
2019-04-21T00:15:24.029Z,53.45
2019-04-21T00:16:00.126Z,54.03
2019-04-21T00:16:43.979Z,53.93
2019-04-21T00:17:19.583Z,53.64
2019-04-21T00:18:00.944Z,54.03
2019-04-21T00:18:47.634Z,53.64
2019-04-21T00:19:21.491Z,53.93
2019-04-21T00:20:08.939Z,54.41
2019-04-21T00:20:44.507Z,54.22
2019-04-21T00:21:29.035Z,54.7
2019-04-21T00:22:08.428Z,54.7
2019-04-21T00:22:50.901Z,54.89
2019-04-21T00:23:37.361Z,55.08
2019-04-21T00:24:11.954Z,55.15
2019-04-21T00:24:54.100Z,55.53
2019-04-21T00:25:33.575Z,55.73
2019-04-21T00:26:16.973Z,56.1
2019-04-21T00:26:57.208Z,56.3
2019-04-21T00:27:37.971Z,56.3
2019-04-21T00:28:23.722Z,57.04
2019-04-21T00:29:08.949Z,56.84
2019-04-21T00:29:42.372Z,57.23
2019-04-21T00:30:26.700Z,57.61
2019-04-21T00:31:04.163Z,57.99
2019-04-21T00:31:41.803Z,58.09
2019-04-21T00:32:17.502Z,58.25
2019-04-21T00:32:56.047Z,58.83
2019-04-21T00:33:28.759Z,58.83
2019-04-21T00:34:06.701Z,59.01
2019-04-21T00:34:50.888Z,59.3
2019-04-21T00:35:29.349Z,59.4
2019-04-21T00:36:14.760Z,59.2
2019-04-21T00:36:59.511Z,59.4
2019-04-21T00:37:47.732Z,59.11
2019-04-21T00:38:31.797Z,59.4
2019-04-21T00:39:20.513Z,59.4
2019-04-21T00:39:55.548Z,59.4
2019-04-21T00:40:34.314Z,59.88
2019-04-21T00:41:13.075Z,59.88
2019-04-21T00:41:53.539Z,59.59
2019-04-21T00:42:28.930Z,59.78
2019-04-21T00:43:07.450Z,59.59
2019-04-21T00:43:44.587Z,59.49
2019-04-21T00:44:24.412Z,59.78
2019-04-21T00:45:07.786Z,59.97
2019-04-21T00:45:44.294Z,59.69
2019-04-21T00:46:30.627Z,60.16
2019-04-21T00:47:05.046Z,60.06
2019-04-21T00:47:57.534Z,60.35
2019-04-21T00:48:34.189Z,60.45
2019-04-21T00:49:10.288Z,60.64
2019-04-21T00:50:40.040Z,60.55
2019-04-21T00:51:33.015Z,60.83
2019-04-21T00:52:11.125Z,61.51
2019-04-21T00:52:50.566Z,61.19
2019-04-21T00:53:22.005Z,61.41
2019-04-21T00:54:03.598Z,61.22
2019-04-21T00:54:47.971Z,61.28
2019-04-21T00:56:03.112Z,61.28
2019-04-21T00:56:39.308Z,61.57
2019-04-21T00:57:23.980Z,61.76
2019-04-21T00:58:01.843Z,61.95
2019-04-21T00:58:59.116Z,62.52
2019-04-21T00:59:25.458Z,62.14
2019-04-21T01:00:06.761Z,62.43
2019-04-21T01:00:45.656Z,62.33
2019-04-21T01:01:24.688Z,62.52
2019-04-21T01:01:59.566Z,62.33
2019-04-21T01:02:49.561Z,62.52
2019-04-21T01:03:25.682Z,61.95
2019-04-21T01:04:02.044Z,62.24
2019-04-21T01:04:49.283Z,62.43
2019-04-21T01:05:25.268Z,62.24
2019-04-21T01:06:02.986Z,62.24
2019-04-21T01:06:47.775Z,62.14
2019-04-21T01:07:26.413Z,62.43
2019-04-21T01:08:09.304Z,62.71
2019-04-21T01:08:45.551Z,62.9
2019-04-21T01:09:23.574Z,63.1
2019-04-21T01:10:01.097Z,63.26
2019-04-21T01:10:37.987Z,63.45
2019-04-21T01:11:43.823Z,63.54
2019-04-21T01:12:06.745Z,63.73
2019-04-21T01:12:47.511Z,63.73
2019-04-21T01:13:31.927Z,64.31
2019-04-21T01:14:11.596Z,64.4
2019-04-21T01:14:55.109Z,64.5
2019-04-21T01:15:36.756Z,64.69
2019-04-21T01:16:13.608Z,64.78
2019-04-21T01:16:51.201Z,64.88
2019-04-21T01:17:35.073Z,65.07
2019-04-21T01:18:16.119Z,65.17
2019-04-21T01:18:54.318Z,64.88
2019-04-21T01:19:32.778Z,65.07
2019-04-21T01:20:06.150Z,65.07
2019-04-21T01:20:33.865Z,65.07
2019-04-21T01:21:14.668Z,65.36
2019-04-21T01:21:54.662Z,65.26
2019-04-21T01:22:35.013Z,65.45
2019-04-21T01:23:16.626Z,65.17
2019-04-21T01:24:05.361Z,65.14
2019-04-21T01:24:41.699Z,65.74
2019-04-21T01:25:25.490Z,65.8
2019-04-21T01:26:11.915Z,66.09
2019-04-21T01:26:46.930Z,65.9
2019-04-21T01:27:28.744Z,65.8
2019-04-21T01:28:13.384Z,66.47
2019-04-21T01:28:55.545Z,66
2019-04-21T01:29:41.276Z,66.03
2019-04-21T01:30:56.662Z,65.26
2019-04-21T01:31:35.935Z,65.17
2019-04-21T01:32:23.460Z,64.98
2019-04-21T01:32:58.870Z,64.88
2019-04-21T01:33:44.203Z,64.5
2019-04-21T01:34:20.329Z,64.31
2019-04-21T01:35:02.219Z,64.22
2019-04-21T01:35:43.645Z,64.22
2019-04-21T01:36:17.612Z,64.59
2019-04-21T01:36:58.303Z,63.93
2019-04-21T01:37:49.063Z,64.12
2019-04-21T01:38:28.693Z,63.19
2019-04-21T01:39:05.107Z,63.48
2019-04-21T01:39:46.794Z,63.48
2019-04-21T01:40:28.636Z,63.45
2019-04-21T01:41:06.814Z,63.1
2019-04-21T01:41:50.629Z,63.19
2019-04-21T01:42:25.435Z,63
2019-04-21T01:43:07.261Z,63.19
2019-04-21T01:43:45.009Z,63.57
2019-04-21T01:44:35.895Z,63.16
2019-04-21T01:45:09.157Z,63.64
2019-04-21T01:45:48.535Z,63.83
2019-04-21T01:46:25.504Z,63.73
2019-04-21T01:47:05.908Z,63.93
2019-04-21T01:47:45.799Z,64.12
2019-04-21T01:48:23.925Z,64.59
2019-04-21T01:49:04.320Z,64.59
2019-04-21T01:49:42.906Z,64.69
2019-04-21T01:50:28.788Z,64.69
2019-04-21T01:51:08.373Z,64.69
2019-04-21T01:52:02.418Z,64.78
2019-04-21T01:52:43.711Z,64.98
2019-04-21T01:53:17.133Z,65.26
2019-04-21T01:53:54.674Z,65.45
2019-04-21T01:54:34.954Z,65.36
2019-04-21T01:55:17.555Z,65.17
2019-04-21T01:55:53.945Z,65.07
2019-04-21T01:56:33.721Z,65.17
2019-04-21T01:57:12.200Z,65.61
2019-04-21T01:57:53.838Z,66.09
2019-04-21T01:58:28.685Z,66.38
2019-04-21T01:59:06.531Z,66
2019-04-21T01:59:50.131Z,66.38
2019-04-21T02:00:32.503Z,66.38
2019-04-21T02:01:12.680Z,66.28
2019-04-21T02:02:00.017Z,66
2019-04-21T02:02:43.119Z,65.71
2019-04-21T02:03:40.489Z,66.03
2019-04-21T02:05:25.695Z,66.85
2019-04-21T02:06:04.246Z,66.85
2019-04-21T02:06:43.945Z,66.76
2019-04-21T02:07:20.176Z,66.76
2019-04-21T02:08:00.619Z,67.05
2019-04-21T02:08:41.289Z,67.24
2019-04-21T02:09:18.730Z,67.71
2019-04-21T02:10:04.625Z,67.52
2019-04-21T02:10:45.942Z,67.71
2019-04-21T02:11:29.808Z,68.19
2019-04-21T02:12:08.511Z,67.91
2019-04-21T02:12:44.201Z,67.81
2019-04-21T02:13:21.231Z,68.29
2019-04-21T02:14:09.731Z,68
2019-04-21T02:14:50.128Z,67.81
2019-04-21T02:15:29.274Z,67.62
2019-04-21T02:16:11.090Z,67.52
2019-04-21T02:16:46.477Z,67.71
2019-04-21T02:17:27.565Z,67.71
2019-04-21T02:18:05.879Z,67.52
2019-04-21T02:18:49.252Z,67.71
2019-04-21T02:19:23.079Z,67.52
2019-04-21T02:20:02.398Z,67.62
2019-04-21T02:20:40.861Z,67.62
2019-04-21T02:21:31.240Z,68
2019-04-21T02:22:03.145Z,68
2019-04-21T02:23:04.498Z,67.81
2019-04-21T02:23:37.652Z,68.1
2019-04-21T02:24:20.260Z,67.81
2019-04-21T02:24:56.533Z,68.19
2019-04-21T02:25:50.449Z,69.05
2019-04-21T02:26:15.908Z,68.86
2019-04-21T02:26:58.995Z,69.05
2019-04-21T02:27:35.889Z,68.76
2019-04-21T02:28:19.143Z,68.86
2019-04-21T02:28:59.924Z,69.15
2019-04-21T02:29:40.487Z,69.02
2019-04-21T02:30:26.953Z,69.53
2019-04-21T02:31:13.498Z,69.02
2019-04-21T02:31:44.100Z,69.31
2019-04-21T02:32:24.105Z,69.11
2019-04-21T02:33:08.372Z,69.11
2019-04-21T02:33:54.055Z,69.21
2019-04-21T02:34:31.975Z,69.11
2019-04-21T02:35:12.177Z,69.87
2019-04-21T02:37:26.837Z,69.78
2019-04-21T02:38:36.097Z,69.49
2019-04-21T02:39:13.121Z,69.97
2019-04-21T02:39:56.415Z,69.78
2019-04-21T02:41:05.570Z,69.97
2019-04-21T02:41:54.195Z,70.45
2019-04-21T02:42:37.431Z,70.54
2019-04-21T02:43:10.961Z,71.08
2019-04-21T02:43:59.929Z,70.83
2019-04-21T02:44:36.966Z,70.54
2019-04-21T02:45:16.126Z,70.73
2019-04-21T02:45:55.693Z,70.79
2019-04-21T02:47:16.363Z,71.08
2019-04-21T02:48:43.127Z,71.37
2019-04-21T02:49:21.775Z,71.37
2019-04-21T02:50:35.953Z,71.66
2019-04-21T02:51:19.123Z,72.23
2019-04-21T02:52:00.918Z,71.66
2019-04-21T02:52:52.117Z,71.84
2019-04-21T02:54:31.249Z,71.75
2019-04-21T02:56:00.039Z,70.89
2019-04-21T02:56:41.827Z,71.18
2019-04-21T02:58:05.578Z,71.27
2019-04-21T02:59:22.498Z,71.66
2019-04-21T03:00:06.289Z,71.84
2019-04-21T03:00:42.425Z,71.46
2019-04-21T03:01:30.917Z,71.75
2019-04-21T03:02:03.295Z,72.03
2019-04-21T03:02:46.618Z,71.84
2019-04-21T03:03:27.417Z,72.03
2019-04-21T03:04:07.911Z,71.84
2019-04-21T03:05:01.431Z,71.84
2019-04-21T03:05:35.966Z,71.66
2019-04-21T03:06:22.270Z,71.56
2019-04-21T03:07:08.969Z,71.75
2019-04-21T03:08:14.062Z,71.75
2019-04-21T03:09:30.586Z,71.94
2019-04-21T03:10:10.527Z,72.03
2019-04-21T03:10:52.767Z,72.23
2019-04-21T03:11:46.641Z,72.51
2019-04-21T03:12:10.660Z,72.71
2019-04-21T03:12:43.742Z,72.99
2019-04-21T03:13:38.971Z,72.8
2019-04-21T03:14:15.715Z,72.8
2019-04-21T03:16:46.772Z,73.43
2019-04-21T03:18:12.293Z,73.14
2019-04-21T03:18:56.342Z,72.86
2019-04-21T03:19:44.656Z,73.33
2019-04-21T03:20:16.833Z,73.43
2019-04-21T03:21:36.472Z,74.1
2019-04-21T03:22:19.866Z,74.29
2019-04-21T03:22:59.630Z,74.77
2019-04-21T03:24:28.795Z,75.05
2019-04-21T03:26:26.961Z,74.1
2019-04-21T03:27:09.415Z,73.72
2019-04-21T03:28:22.009Z,73.72
2019-04-21T03:29:02.178Z,73.24
2019-04-21T03:34:14.573Z,74.48
2019-04-21T03:34:38.065Z,74.1
2019-04-21T03:36:46.988Z,73.33
2019-04-21T03:37:06.692Z,73.33
2019-04-21T03:37:41.830Z,73.52
2019-04-21T03:38:26.683Z,73.05
2019-04-21T03:39:00.614Z,73.81
2019-04-21T03:39:50.158Z,73.24
2019-04-21T03:40:25.295Z,73.91
2019-04-21T03:41:10.284Z,73.62
2019-04-21T03:43:11.928Z,74.01
2019-04-21T03:43:49.874Z,74.48
2019-04-21T03:44:29.919Z,74.67
2019-04-21T03:45:57.977Z,74.29
2019-04-21T03:46:40.845Z,74.57
2019-04-21T03:47:22.593Z,74.19
2019-04-21T03:48:00.543Z,73.62
2019-04-21T03:48:40.391Z,73.52
2019-04-21T03:49:27.175Z,73.81
2019-04-21T03:50:38.635Z,73.62
2019-04-21T03:51:35.541Z,73.72
2019-04-21T03:52:19.117Z,73.62
2019-04-21T03:52:43.842Z,73.81
2019-04-21T03:53:23.875Z,74.38
2019-04-21T03:53:59.479Z,74.67
2019-04-21T03:54:53.023Z,74.57
2019-04-21T03:56:00.129Z,74.57
2019-04-21T03:56:26.851Z,74.67
2019-04-21T03:56:58.657Z,75.34
2019-04-21T03:57:31.133Z,74.86
2019-04-21T03:58:53.921Z,75.24
2019-04-21T03:59:24.001Z,75.11
2019-04-21T04:00:20.558Z,75.01
2019-04-21T04:01:32.061Z,75.68
2019-04-21T04:02:14.517Z,75.78
2019-04-21T04:02:54.336Z,76.06
2019-04-21T04:04:27.625Z,76.25
2019-04-21T04:04:52.442Z,76.73
2019-04-21T04:05:47.639Z,76.44
2019-04-21T04:07:41.740Z,77.3
2019-04-21T04:08:20.255Z,77.49
2019-04-21T04:08:57.301Z,77.4
2019-04-21T04:09:36.621Z,77.49
2019-04-21T04:10:11.505Z,77.01
2019-04-21T04:11:02.461Z,76.64
2019-04-21T04:11:37.478Z,76.64
2019-04-21T04:12:10.970Z,76.44
2019-04-21T04:12:56.836Z,76.64
2019-04-21T04:13:47.102Z,77.11
2019-04-21T04:14:49.895Z,76.16
2019-04-21T04:15:45.103Z,75.81
2019-04-21T04:16:16.675Z,75.81
2019-04-21T04:17:04.395Z,76.57
2019-04-21T04:17:39.903Z,76.06
2019-04-21T04:18:27.713Z,75.81
2019-04-21T04:18:57.209Z,75.96
2019-04-21T04:19:38.817Z,75.59
2019-04-21T04:21:02.402Z,76.16
2019-04-21T04:21:47.347Z,76.16
2019-04-21T04:22:29.324Z,76.64
2019-04-21T04:23:00.719Z,77.11
2019-04-21T04:23:44.833Z,76.73
2019-04-21T04:24:38.645Z,77.01
2019-04-21T04:25:04.193Z,77.4
2019-04-21T04:25:42.222Z,77.4
2019-04-21T04:26:21.851Z,77.49
2019-04-21T04:27:04.862Z,77.59
2019-04-21T04:27:59.218Z,77.78
2019-04-21T05:07:20.982Z,72.51
2019-04-21T05:08:05.323Z,71.66
2019-04-21T05:09:20.903Z,70.92
2019-04-21T05:09:58.787Z,70.16
2019-04-21T05:12:15.571Z,68.38
2019-04-21T05:12:43.627Z,67.52
2019-04-21T05:13:25.771Z,66.89
2019-04-21T05:14:45.970Z,65.26
2019-04-21T05:15:23.193Z,64.91
2019-04-21T05:16:09.606Z,63.96
2019-04-21T05:17:13.815Z,63.29
2019-04-21T05:18:04.415Z,62.9
2019-04-21T05:18:52.345Z,62.55
2019-04-21T05:19:29.907Z,61.98
2019-04-21T05:20:11.073Z,61.79
2019-04-21T05:20:52.000Z,61.22
2019-04-21T05:21:34.079Z,60.55
2019-04-21T05:22:10.870Z,60.19
2019-04-21T05:22:47.060Z,59.91
2019-04-21T05:23:24.184Z,59.81
2019-04-21T05:23:59.654Z,59.91
2019-04-21T05:24:43.827Z,59.43
2019-04-21T05:25:18.355Z,59.14
2019-04-21T05:25:57.857Z,58.86
2019-04-21T05:26:43.103Z,58.28
2019-04-21T05:27:20.189Z,58.18
2019-04-21T05:27:59.934Z,57.51
2019-04-21T05:28:40.531Z,57.35
2019-04-21T05:29:19.250Z,57.45
2019-04-21T05:30:06.937Z,56.97
2019-04-21T05:30:48.629Z,56.77
2019-04-21T05:31:31.073Z,56.68
2019-04-21T05:32:52.195Z,57.42
2019-04-21T05:33:31.993Z,57.32
2019-04-21T05:34:09.279Z,57.45
2019-04-21T05:34:50.159Z,57.06
2019-04-21T05:35:31.953Z,56.77
2019-04-21T05:36:09.044Z,56.59
2019-04-21T05:36:50.110Z,56.49
2019-04-21T05:37:28.362Z,56.68
2019-04-21T05:38:10.024Z,56.32
2019-04-21T05:38:47.446Z,55.85
2019-04-21T05:39:28.199Z,55.18
2019-04-21T05:40:10.068Z,54.32
2019-04-21T05:40:43.515Z,54.03
2019-04-21T05:41:25.383Z,53.86
2019-04-21T05:42:02.506Z,53.64
2019-04-21T05:42:49.420Z,53.86
2019-04-21T05:43:38.599Z,53.67
2019-04-21T05:44:17.035Z,53
2019-04-21T05:45:01.446Z,52.74
2019-04-21T05:45:40.400Z,52.26
2019-04-21T05:46:18.245Z,52.45
2019-04-21T05:47:07.529Z,51.78
2019-04-21T05:47:39.447Z,51.2
2019-04-21T05:48:22.692Z,51.51
2019-04-21T05:48:56.987Z,50.37
2019-04-21T05:49:38.095Z,50.43
2019-04-21T05:50:16.425Z,50.34
2019-04-21T05:50:58.717Z,50.82
2019-04-21T05:51:34.976Z,51.1
2019-04-21T05:52:19.545Z,50.92
2019-04-21T05:52:53.347Z,50.92
2019-04-21T05:53:40.339Z,50.43
2019-04-21T05:54:29.193Z,50.63
2019-04-21T05:55:09.017Z,49.88
2019-04-21T05:56:22.039Z,49.02
2019-04-21T05:57:05.042Z,48.28
2019-04-21T05:57:45.589Z,48.18
2019-04-21T05:58:26.987Z,48.18
2019-04-21T05:59:07.407Z,48.38
2019-04-21T05:59:48.759Z,47.71
2019-04-21T06:00:38.865Z,47.15
2019-04-21T06:01:28.356Z,46.86
2019-04-21T06:01:46.153Z,46.48
2019-04-21T06:02:28.705Z,46.48
2019-04-21T06:03:14.946Z,46.09
2019-04-21T06:03:48.929Z,46.19
2019-04-21T06:04:46.688Z,46.38
2019-04-21T06:06:32.122Z,45.73
2019-04-21T06:07:18.689Z,45.54
2019-04-21T06:07:51.719Z,44.77
2019-04-21T06:08:30.686Z,45.08
2019-04-21T06:09:14.239Z,44.79
2019-04-21T06:09:55.272Z,44.22
2019-04-21T06:10:34.498Z,43.76
2019-04-21T06:11:17.719Z,43.57
2019-04-21T06:11:55.332Z,43.66
2019-04-21T06:12:32.591Z,42.89
2019-04-21T06:13:18.532Z,42.53
2019-04-21T06:14:36.550Z,41.76
2019-04-21T06:15:13.391Z,41.47
2019-04-21T06:15:55.933Z,41.49
2019-04-21T06:16:42.514Z,41.3
2019-04-21T06:17:23.500Z,41.3
2019-04-21T06:17:56.170Z,40.91
2019-04-21T06:19:20.565Z,41.13
2019-04-21T06:19:59.806Z,40.94
2019-04-21T06:20:40.444Z,40.45
2019-04-21T06:21:15.773Z,40.26
2019-04-21T06:21:56.734Z,40.47
2019-04-21T06:22:35.821Z,40.28
2019-04-21T06:23:23.635Z,40.19
2019-04-21T06:24:02.100Z,39.89
2019-04-21T06:24:54.089Z,39.7
2019-04-21T06:26:17.733Z,39.31
2019-04-21T06:26:53.524Z,39.62
2019-04-21T06:27:27.062Z,39.22
2019-04-21T06:28:03.384Z,39.12
2019-04-21T06:28:45.147Z,39.51
2019-04-21T06:29:23.111Z,39.31
2019-04-21T06:30:03.091Z,39.97
2019-04-21T06:31:05.300Z,40.45
2019-04-21T06:31:46.575Z,40.36
2019-04-21T06:32:48.933Z,40.37
2019-04-21T06:33:44.279Z,40.47
2019-04-21T06:34:07.897Z,40.19
2019-04-21T06:35:05.979Z,40.09
2019-04-21T06:35:39.590Z,39.41
2019-04-21T06:36:23.076Z,39.43
2019-04-21T06:38:12.916Z,39.24
2019-04-21T06:39:09.876Z,39.04
2019-04-21T06:39:29.892Z,39.24
2019-04-21T06:40:27.577Z,39.34
2019-04-21T06:40:55.619Z,38.85
2019-04-21T06:42:08.941Z,38.95
2019-04-21T06:43:04.215Z,38.56
2019-04-21T06:43:39.751Z,38.58
2019-04-21T06:45:39.632Z,38.2
2019-04-21T06:46:19.684Z,38.39
2019-04-21T06:46:48.695Z,38.1
2019-04-21T06:48:17.936Z,38.02
2019-04-21T06:49:29.806Z,37.25
2019-04-21T06:50:22.228Z,37.15
2019-04-21T06:50:58.965Z,37.17
2019-04-21T06:51:35.540Z,37.17
2019-04-21T06:52:34.514Z,37.08
2019-04-21T06:53:20.307Z,36.79
2019-04-21T06:53:44.204Z,36.79
2019-04-21T06:54:20.876Z,36.67
2019-04-21T06:55:09.766Z,36.67
2019-04-21T06:55:36.858Z,36.77
2019-04-21T06:56:21.615Z,36.67
2019-04-21T06:56:56.021Z,36.01
2019-04-21T06:58:17.922Z,36.01
2019-04-21T06:59:00.490Z,35.72
2019-04-21T06:59:38.205Z,35.63
2019-04-21T07:00:18.279Z,35.63
2019-04-21T07:01:00.369Z,35.14
2019-04-21T07:02:08.005Z,35.24
2019-04-21T07:03:13.977Z,35.14
2019-04-21T07:03:47.237Z,34.95
2019-04-21T07:05:07.213Z,35.24
2019-04-21T07:05:47.179Z,35.16
2019-04-21T07:06:29.169Z,34.95
2019-04-21T07:07:04.412Z,35.34
2019-04-21T07:07:54.474Z,36.09
2019-04-21T07:08:34.231Z,36.65
2019-04-21T07:09:50.943Z,37.12
2019-04-21T07:10:31.612Z,37.04
2019-04-21T07:11:08.159Z,37.23
2019-04-21T07:11:47.357Z,37.13
2019-04-21T07:12:27.371Z,37.41
2019-04-21T07:13:07.539Z,38.08
2019-04-21T07:13:54.468Z,38.56
2019-04-21T07:14:31.756Z,39.03
2019-04-21T07:15:09.793Z,39.03
2019-04-21T07:15:55.267Z,38.83
2019-04-21T07:16:38.304Z,39.31
2019-04-21T07:17:17.642Z,39.12
2019-04-21T07:17:57.624Z,39.12
2019-04-21T07:18:40.888Z,39.22
2019-04-21T07:19:20.166Z,39.03
2019-04-21T07:19:59.925Z,39.03
2019-04-21T07:20:36.103Z,39.14
2019-04-21T07:21:12.588Z,38.85
2019-04-21T07:21:55.331Z,39.04
2019-04-21T07:22:47.593Z,38.39
2019-04-21T07:23:15.287Z,37.71
2019-04-21T07:24:04.996Z,37.23
2019-04-21T07:24:55.864Z,37.43
2019-04-21T07:25:21.919Z,37.33
2019-04-21T07:26:02.553Z,37.79
2019-04-21T07:26:42.194Z,38.18
2019-04-21T07:27:22.057Z,38.37
2019-04-21T07:28:17.196Z,37.79
2019-04-21T07:28:47.511Z,37.52
2019-04-21T07:29:26.832Z,37.89
2019-04-21T07:30:04.022Z,37.91
2019-04-21T07:30:43.437Z,37.89
2019-04-21T07:31:24.742Z,37.98
2019-04-21T07:32:04.081Z,37.91
2019-04-21T07:32:47.156Z,37.6
2019-04-21T07:34:07.270Z,37.41
2019-04-21T07:34:44.509Z,37.71
2019-04-21T07:35:24.719Z,37.79
2019-04-21T07:36:11.005Z,37.91
2019-04-21T07:37:29.688Z,37.98
2019-04-21T07:38:09.458Z,38.76
2019-04-21T07:38:49.556Z,38.46
2019-04-21T07:39:26.925Z,38.39
2019-04-21T07:40:04.891Z,38.39
2019-04-21T07:40:45.325Z,38.01
2019-04-21T07:41:24.175Z,37.45
2019-04-21T07:42:08.818Z,36.96
2019-04-21T07:42:47.644Z,36.77
2019-04-21T07:43:23.203Z,36.77
2019-04-21T07:44:03.955Z,36.77
2019-04-21T07:44:45.845Z,36.88
2019-04-21T07:45:26.053Z,36.4
2019-04-21T07:46:09.989Z,36.3
2019-04-21T07:46:48.911Z,35.84
2019-04-21T07:47:39.313Z,35.64
2019-04-21T07:48:18.616Z,35.55
2019-04-21T07:48:55.304Z,35.64
2019-04-21T07:49:39.524Z,35.57
2019-04-21T07:50:20.330Z,34.7
2019-04-21T07:50:57.290Z,34.42
2019-04-21T07:51:45.069Z,34.23
2019-04-21T07:52:21.962Z,34.13
2019-04-21T07:53:49.228Z,34.04
2019-04-21T07:54:44.096Z,34.13
2019-04-21T07:55:12.224Z,34.25
2019-04-21T07:56:09.173Z,33.76
2019-04-21T07:56:52.282Z,33.86
2019-04-21T07:57:37.448Z,33.78
2019-04-21T07:58:20.778Z,32.81
2019-04-21T07:59:01.532Z,33.01
2019-04-21T07:59:54.710Z,33.01
2019-04-21T08:00:28.699Z,32.52
2019-04-21T08:01:03.710Z,32.52
2019-04-21T08:01:43.697Z,32.23
2019-04-21T08:02:22.005Z,32.34
2019-04-21T08:03:07.289Z,32.24
2019-04-21T08:03:45.178Z,31.96
2019-04-21T08:04:42.134Z,31.28
2019-04-21T08:05:12.843Z,30.89
2019-04-21T08:05:52.404Z,30.89
2019-04-21T08:06:33.292Z,31.1
2019-04-21T08:07:04.184Z,30.42
2019-04-21T08:07:51.748Z,30.13
2019-04-21T08:08:25.869Z,29.74
2019-04-21T08:09:06.989Z,29.27
2019-04-21T08:09:50.879Z,29.08
2019-04-21T08:10:25.815Z,29.37
2019-04-21T08:11:08.889Z,29.47
2019-04-21T08:11:47.435Z,29.27
2019-04-21T08:12:23.961Z,28.98
2019-04-21T08:13:18.291Z,29.08
2019-04-21T08:13:51.502Z,29.08
2019-04-21T08:14:34.876Z,29.47
2019-04-21T08:15:19.272Z,29.95
2019-04-21T08:16:10.411Z,29.66
2019-04-21T08:16:36.574Z,29.27
2019-04-21T08:17:15.865Z,28.98
2019-04-21T08:17:53.215Z,29
2019-04-21T08:18:38.948Z,28.22
2019-04-21T08:19:18.431Z,27.73
2019-04-21T08:19:52.817Z,28.22
2019-04-21T08:20:34.457Z,28.02
2019-04-21T08:21:20.479Z,27.72
2019-04-21T08:22:05.065Z,28.3
2019-04-21T08:22:46.222Z,28.2
2019-04-21T08:23:18.449Z,28.11
2019-04-21T08:23:59.447Z,27.92
2019-04-21T08:24:41.965Z,28.3
2019-04-21T08:25:19.182Z,28.11
2019-04-21T08:26:41.316Z,28.41
2019-04-21T08:27:25.166Z,28.41
2019-04-21T08:28:18.972Z,28.22
2019-04-21T08:28:45.395Z,27.84
2019-04-21T08:29:32.726Z,28.04
2019-04-21T08:30:04.245Z,28.04
2019-04-21T08:30:42.301Z,28.05
2019-04-21T08:31:31.878Z,27.47
2019-04-21T08:32:25.961Z,26.31
2019-04-21T08:33:31.754Z,25.45
2019-04-21T08:34:13.701Z,25.54
2019-04-21T08:34:53.696Z,25.84
2019-04-21T08:35:52.627Z,25.85
2019-04-21T08:36:17.316Z,25.65
2019-04-21T08:36:50.759Z,25.67
2019-04-21T08:37:30.562Z,25.57
2019-04-21T08:38:08.019Z,25.37
2019-04-21T08:38:53.400Z,25.47
2019-04-21T08:39:28.695Z,25.38
2019-04-21T08:40:15.544Z,24.9
2019-04-21T08:40:48.959Z,24.89
2019-04-21T08:41:29.600Z,24.89
2019-04-21T08:42:10.008Z,25.18
2019-04-21T08:42:50.658Z,25.65
2019-04-21T08:43:40.567Z,25.56
2019-04-21T08:44:09.134Z,25.65
2019-04-21T08:44:52.218Z,25.64
2019-04-21T08:45:35.207Z,25.64
2019-04-21T08:46:58.594Z,25.56
2019-04-21T08:47:39.452Z,25.64
2019-04-21T08:48:16.632Z,25.93
2019-04-21T08:48:55.172Z,26.21
2019-04-21T08:49:34.583Z,26.22
2019-04-21T08:50:14.740Z,26.32
2019-04-21T08:51:13.842Z,26.03
2019-04-21T08:51:35.528Z,26.22
2019-04-21T08:52:28.016Z,26.12
2019-04-21T08:52:59.618Z,26.32
2019-04-21T08:53:47.378Z,25.75
2019-04-21T08:54:21.354Z,25.65
2019-04-21T08:55:03.136Z,25.65
2019-04-21T08:55:48.718Z,25.27
2019-04-21T08:56:39.727Z,24.98
2019-04-21T08:57:07.589Z,24.4
2019-04-21T08:57:50.295Z,24.78
2019-04-21T08:58:28.644Z,24.88
2019-04-21T08:59:10.735Z,25.25
2019-04-21T08:59:50.453Z,25.54
2019-04-21T09:00:32.009Z,25.63
2019-04-21T09:01:08.565Z,26.11
2019-04-21T09:01:48.471Z,25.82
2019-04-21T09:02:29.080Z,26.01
2019-04-21T09:03:06.260Z,26.22
2019-04-21T09:03:49.027Z,26.22
2019-04-21T09:04:28.379Z,25.95
2019-04-21T09:05:10.909Z,25.67
2019-04-21T09:05:49.165Z,25.37
2019-04-21T09:06:41.560Z,24.6
2019-04-21T09:07:12.479Z,24.6
2019-04-21T09:07:50.719Z,24.79
2019-04-21T09:08:31.142Z,24.6
2019-04-21T09:09:16.341Z,23.83
2019-04-21T09:09:51.445Z,23.44
2019-04-21T09:10:34.584Z,23.04
2019-04-21T09:11:11.339Z,22.75
2019-04-21T09:11:53.681Z,22.65
2019-04-21T09:12:34.377Z,22.75
2019-04-21T09:13:09.942Z,22.93
2019-04-21T09:13:53.891Z,23.03
2019-04-21T09:14:36.291Z,23.89
2019-04-21T09:15:13.449Z,23.89
2019-04-21T09:15:52.041Z,23.89
2019-04-21T09:16:34.989Z,23.7
2019-04-21T09:17:14.694Z,24.1
2019-04-21T09:17:52.605Z,24.39
2019-04-21T09:18:32.304Z,24.1
2019-04-21T09:19:25.073Z,23.9
2019-04-21T09:20:12.549Z,24.08
2019-04-21T09:20:45.872Z,23.79
2019-04-21T09:21:19.233Z,23.71
2019-04-21T09:22:00.297Z,23.32
2019-04-21T09:22:41.034Z,23.13
2019-04-21T09:23:19.058Z,23.22
2019-04-21T09:24:04.371Z,22.83
2019-04-21T09:24:45.238Z,23.33
2019-04-21T09:25:26.366Z,23.33
2019-04-21T09:26:04.806Z,23.33
2019-04-21T09:26:45.851Z,23.91
2019-04-21T09:27:24.657Z,23.52
2019-04-21T09:28:03.799Z,23.91
2019-04-21T09:28:39.281Z,24.11
2019-04-21T09:29:20.452Z,24.22
2019-04-21T09:29:55.624Z,24.02
2019-04-21T09:30:39.340Z,24.01
2019-04-21T09:31:12.196Z,23.72
2019-04-21T09:31:55.494Z,23.52
2019-04-21T09:32:34.650Z,23.43
2019-04-21T09:33:14.052Z,23.73
2019-04-21T09:33:59.097Z,23.05
2019-04-21T09:34:40.362Z,22.08
2019-04-21T09:35:17.293Z,21.41
2019-04-21T09:36:00.886Z,21.6
2019-04-21T09:36:43.017Z,21.8
2019-04-21T09:37:28.524Z,21.99
2019-04-21T09:38:02.564Z,21.7
2019-04-21T09:38:41.655Z,21.71
2019-04-21T09:39:20.643Z,21.51
2019-04-21T09:39:59.447Z,21.04
2019-04-21T09:40:43.810Z,20.95
2019-04-21T09:41:22.086Z,20.47
2019-04-21T09:42:02.471Z,20.17
2019-04-21T09:42:47.281Z,19.88
2019-04-21T09:43:30.511Z,20.56
2019-04-21T09:44:01.594Z,20.86
2019-04-21T09:44:43.985Z,20.37
2019-04-21T09:45:22.867Z,20.47
2019-04-21T09:46:01.903Z,20.47
2019-04-21T09:46:48.784Z,20.07
2019-04-21T09:47:24.781Z,20.76
2019-04-21T09:48:09.857Z,20.17
2019-04-21T09:48:51.767Z,20.47
2019-04-21T09:49:27.126Z,20.28
2019-04-21T09:50:05.143Z,20.76
2019-04-21T09:50:45.750Z,21.15
2019-04-21T09:51:25.853Z,20.95
2019-04-21T09:52:06.576Z,21.05
2019-04-21T09:52:52.757Z,20.86
2019-04-21T09:53:32.683Z,21.25
2019-04-21T09:54:11.987Z,20.95
2019-04-21T09:54:56.344Z,20.77
2019-04-21T09:55:36.275Z,21.06
2019-04-21T09:56:11.678Z,21.17
2019-04-21T09:56:54.827Z,20.87
2019-04-21T09:57:38.001Z,20.78
2019-04-21T09:58:19.447Z,20.18
2019-04-21T09:58:54.545Z,19.99
2019-04-21T09:59:35.306Z,20.47
2019-04-21T10:00:14.941Z,20.48
2019-04-21T10:01:01.018Z,20.67
2019-04-21T10:01:44.588Z,19.8
2019-04-21T10:02:18.083Z,19.8
2019-04-21T10:03:00.489Z,19.51
2019-04-21T10:03:35.858Z,19.21
2019-04-21T10:04:14.103Z,19.31
2019-04-21T10:04:53.264Z,19.13
2019-04-21T10:05:33.839Z,19.03
2019-04-21T10:06:16.015Z,19.34
2019-04-21T10:06:54.554Z,19.73
2019-04-21T10:07:38.912Z,19.53
2019-04-21T10:08:16.431Z,18.95
2019-04-21T10:09:02.618Z,17.58
2019-04-21T10:09:37.565Z,17.19
2019-04-21T10:10:17.220Z,17.77
2019-04-21T10:10:57.078Z,18.05
2019-04-21T10:11:37.649Z,18.55
2019-04-21T10:12:17.841Z,18.16
2019-04-21T10:12:58.259Z,17.97
2019-04-21T10:13:39.756Z,17.49
2019-04-21T10:14:19.727Z,17.4